createdAt,value
2023-05-19T00:01:17.557Z,101947.22
2023-05-19T00:03:21.774Z,101943.69
2023-05-19T00:05:24.846Z,101948.06
2023-05-19T00:07:30.942Z,101950.88
2023-05-19T00:09:33.021Z,101950.88
2023-05-19T00:11:38.943Z,101954.41
2023-05-19T00:13:40.684Z,101944.66
2023-05-19T00:15:42.556Z,101946.50
2023-05-19T00:17:44.226Z,101951.72
2023-05-19T00:19:45.970Z,101956.13
2023-05-19T00:21:47.772Z,101956.13
2023-05-19T00:23:49.436Z,101955.16
2023-05-19T00:25:52.290Z,101957.00
2023-05-19T00:27:54.027Z,101957.84
2023-05-19T00:29:55.671Z,101953.34
2023-05-19T00:31:57.419Z,101948.94
2023-05-19T00:33:59.085Z,101941.75
2023-05-19T00:36:04.391Z,101947.13
2023-05-19T00:38:06.650Z,101950.75
2023-05-19T00:40:09.708Z,101954.31
2023-05-19T00:42:11.333Z,101952.47
2023-05-19T00:44:12.901Z,101947.13
2023-05-19T00:46:14.850Z,101934.63
2023-05-19T00:48:16.784Z,101941.75
2023-05-19T00:50:18.499Z,101934.53
2023-05-19T00:52:20.340Z,101937.22
2023-05-19T00:54:22.082Z,101932.59
2023-05-19T00:56:23.957Z,101936.25
2023-05-19T00:58:29.235Z,101934.41
2023-05-19T01:00:31.567Z,101942.47
2023-05-19T01:02:33.328Z,101943.34
2023-05-19T01:04:36.556Z,101943.44
2023-05-19T01:06:38.615Z,101939.91
2023-05-19T01:08:40.376Z,101934.53
2023-05-19T01:10:42.216Z,101932.69
2023-05-19T01:12:43.774Z,101930.88
2023-05-19T01:14:45.643Z,101928.19
2023-05-19T01:16:51.784Z,101935.28
2023-05-19T01:19:02.032Z,101930.75
2023-05-19T01:21:26.615Z,101928.19
2023-05-19T01:23:36.754Z,101927.22
2023-05-19T01:26:03.255Z,101927.22
2023-05-19T01:28:42.301Z,101925.38
2023-05-19T01:30:44.545Z,101924.66
2023-05-19T01:32:48.062Z,101922.94
2023-05-19T01:34:51.046Z,101920.25
2023-05-19T01:36:54.919Z,101913.06
2023-05-19T01:38:58.354Z,101918.41
2023-05-19T01:41:01.480Z,101913.91
2023-05-19T01:43:03.754Z,101906.69
2023-05-19T01:45:06.821Z,101910.34
2023-05-19T01:47:09.704Z,101913.91
2023-05-19T01:49:11.581Z,101911.22
2023-05-19T01:51:13.226Z,101911.22
2023-05-19T01:53:14.961Z,101908.66
2023-05-19T01:55:16.600Z,101914.88
2023-05-19T01:57:33.264Z,101911.34
2023-05-19T01:59:57.564Z,101914.88
2023-05-19T02:02:01.387Z,101917.56
2023-05-19T02:04:41.681Z,101918.41
2023-05-19T02:06:49.347Z,101913.91
2023-05-19T02:09:14.192Z,101910.34
2023-05-19T02:11:27.800Z,101921.97
2023-05-19T02:13:33.881Z,101920.97
2023-05-19T02:15:40.537Z,101908.53
2023-05-19T02:17:47.939Z,101907.69
2023-05-19T02:19:49.677Z,101914.88
2023-05-19T02:21:51.842Z,101911.34
2023-05-19T02:23:53.470Z,101911.34
2023-05-19T02:25:55.212Z,101915.72
2023-05-19T02:27:58.489Z,101904.25
2023-05-19T02:30:00.203Z,101910.34
2023-05-19T02:32:02.229Z,101911.22
2023-05-19T02:34:03.846Z,101911.22
2023-05-19T02:36:05.949Z,101912.91
2023-05-19T02:38:07.837Z,101912.91
2023-05-19T02:40:09.673Z,101911.97
2023-05-19T02:42:12.359Z,101906.69
2023-05-19T02:44:14.294Z,101907.69
2023-05-19T02:46:15.906Z,101908.53
2023-05-19T02:48:17.621Z,101909.50
2023-05-19T02:50:19.319Z,101906.69
2023-05-19T02:52:20.994Z,101899.63
2023-05-19T02:54:22.649Z,101904.13
2023-05-19T02:56:24.379Z,101905.84
2023-05-19T02:58:25.997Z,101896.94
2023-05-19T03:00:27.694Z,101900.47
2023-05-19T03:02:29.648Z,101893.25
2023-05-19T03:04:31.470Z,101892.41
2023-05-19T03:06:33.086Z,101890.56
2023-05-19T03:08:35.973Z,101898.63
2023-05-19T03:10:37.718Z,101895.94
2023-05-19T03:12:39.364Z,101896.19
2023-05-19T03:14:41.149Z,101892.53
2023-05-19T03:16:42.920Z,101888.03
2023-05-19T03:18:44.671Z,101901.56
2023-05-19T03:20:46.392Z,101898.78
2023-05-19T03:22:48.054Z,101897.78
2023-05-19T03:24:51.095Z,101902.31
2023-05-19T03:26:52.879Z,101899.63
2023-05-19T03:28:54.579Z,101900.47
2023-05-19T03:30:56.223Z,101904.00
2023-05-19T03:32:57.951Z,101903.16
2023-05-19T03:34:59.597Z,101901.44
2023-05-19T03:37:01.204Z,101899.84
2023-05-19T03:39:02.897Z,101899.72
2023-05-19T03:41:04.763Z,101897.91
2023-05-19T03:43:07.539Z,101898.88
2023-05-19T03:45:09.495Z,101902.41
2023-05-19T03:47:11.099Z,101898.78
2023-05-19T03:49:13.894Z,101903.28
2023-05-19T03:51:15.506Z,101905.00
2023-05-19T03:53:17.233Z,101901.56
2023-05-19T03:55:20.257Z,101898.16
2023-05-19T03:57:22.542Z,101899.63
2023-05-19T03:59:24.423Z,101898.78
2023-05-19T04:01:26.025Z,101897.91
2023-05-19T04:03:28.589Z,101898.03
2023-05-19T04:05:30.369Z,101902.53
2023-05-19T04:07:32.081Z,101902.53
2023-05-19T04:09:35.542Z,101906.06
2023-05-19T04:11:37.298Z,101910.47
2023-05-19T04:13:39.226Z,101910.47
2023-05-19T04:15:41.388Z,101909.50
2023-05-19T04:17:43.258Z,101909.50
2023-05-19T04:19:45.111Z,101905.09
2023-05-19T04:21:46.973Z,101914.88
2023-05-19T04:23:48.648Z,101919.41
2023-05-19T04:25:50.329Z,101912.31
2023-05-19T04:27:52.957Z,101916.81
2023-05-19T04:29:56.078Z,101910.59
2023-05-19T04:31:57.702Z,101908.03
2023-05-19T04:34:01.693Z,101913.28
2023-05-19T04:36:08.370Z,101914.13
2023-05-19T04:38:10.061Z,101910.59
2023-05-19T04:40:12.933Z,101908.75
2023-05-19T04:42:14.684Z,101913.16
2023-05-19T04:44:18.330Z,101906.94
2023-05-19T04:46:24.371Z,101909.63
2023-05-19T04:48:26.407Z,101909.63
2023-05-19T04:50:29.691Z,101912.44
2023-05-19T04:52:31.560Z,101913.28
2023-05-19T04:54:34.894Z,101920.50
2023-05-19T04:56:36.867Z,101927.69
2023-05-19T04:58:40.585Z,101929.53
2023-05-19T05:00:43.481Z,101918.78
2023-05-19T05:02:45.133Z,101925.00
2023-05-19T05:04:46.849Z,101930.25
2023-05-19T05:06:49.016Z,101924.03
2023-05-19T05:08:52.111Z,101927.56
2023-05-19T05:10:54.264Z,101928.53
2023-05-19T05:12:56.154Z,101931.94
2023-05-19T05:14:58.122Z,101943.69
2023-05-19T05:16:59.944Z,101932.22
2023-05-19T05:19:02.520Z,101945.66
2023-05-19T05:21:04.918Z,101936.84
2023-05-19T05:23:09.392Z,101933.16
2023-05-19T05:25:11.969Z,101937.81
2023-05-19T05:27:14.467Z,101938.66
2023-05-19T05:29:16.292Z,101942.22
2023-05-19T05:31:18.007Z,101946.59
2023-05-19T05:33:19.727Z,101941.22
2023-05-19T05:35:23.508Z,101941.22
2023-05-19T05:37:25.165Z,101945.75
2023-05-19T05:39:28.011Z,101947.44
2023-05-19T05:41:35.101Z,101948.44
2023-05-19T05:43:37.013Z,101945.88
2023-05-19T05:45:38.848Z,101945.88
2023-05-19T05:47:41.524Z,101951.34
2023-05-19T05:49:43.958Z,101940.75
2023-05-19T05:51:54.697Z,101946.97
2023-05-19T05:54:07.011Z,101947.81
2023-05-19T05:56:10.060Z,101941.59
2023-05-19T05:58:11.764Z,101945.97
2023-05-19T06:00:16.582Z,101956.72
2023-05-19T06:02:18.478Z,101954.03
2023-05-19T06:04:21.338Z,101955.88
2023-05-19T06:06:23.087Z,101958.56
2023-05-19T06:08:24.732Z,101964.78
2023-05-19T06:10:26.556Z,101955.97
2023-05-19T06:12:28.175Z,101954.16
2023-05-19T06:14:29.799Z,101963.19
2023-05-19T06:16:31.574Z,101959.63
2023-05-19T06:18:33.276Z,101957.81
2023-05-19T06:20:35.214Z,101962.31
2023-05-19T06:22:37.335Z,101967.59
2023-05-19T06:24:39.707Z,101967.81
2023-05-19T06:26:41.434Z,101963.19
2023-05-19T06:28:42.994Z,101966.63
2023-05-19T06:30:44.617Z,101967.69
2023-05-19T06:32:46.230Z,101961.34
2023-05-19T06:34:54.095Z,101960.50
2023-05-19T06:36:55.745Z,101955.25
2023-05-19T06:38:57.648Z,101963.31
2023-05-19T06:40:59.327Z,101962.47
2023-05-19T06:43:00.980Z,101956.22
2023-05-19T06:45:02.707Z,101958.78
2023-05-19T06:47:04.485Z,101958.78
2023-05-19T06:49:06.315Z,101956.94
2023-05-19T06:51:10.183Z,101953.41
2023-05-19T06:53:12.079Z,101954.28
2023-05-19T06:55:13.764Z,101948.78
2023-05-19T06:57:15.671Z,101943.53
2023-05-19T06:59:17.260Z,101941.69
2023-05-19T07:01:18.979Z,101946.13
2023-05-19T07:03:20.995Z,101945.38
2023-05-19T07:05:22.794Z,101947.06
2023-05-19T07:07:24.588Z,101943.53
2023-05-19T07:09:26.220Z,101939.84
2023-05-19T07:11:27.775Z,101942.44
2023-05-19T07:13:29.525Z,101937.94
2023-05-19T07:15:31.255Z,101953.94
2023-05-19T07:17:32.894Z,101950.28
2023-05-19T07:19:34.518Z,101946.72
2023-05-19T07:21:36.291Z,101938.53
2023-05-19T07:23:37.900Z,101943.06
2023-05-19T07:25:39.665Z,101939.38
2023-05-19T07:27:41.419Z,101942.97
2023-05-19T07:29:43.027Z,101941.13
2023-05-19T07:31:44.724Z,101933.06
2023-05-19T07:33:46.405Z,101933.91
2023-05-19T07:35:48.433Z,101932.09
2023-05-19T07:37:51.121Z,101937.31
2023-05-19T07:39:52.800Z,101935.53
2023-05-19T07:41:55.708Z,101938.91
2023-05-19T07:43:57.354Z,101937.09
2023-05-19T07:45:59.062Z,101937.97
2023-05-19T07:48:01.000Z,101929.03
2023-05-19T07:50:03.233Z,101929.03
2023-05-19T07:52:04.976Z,101935.38
2023-05-19T07:54:08.317Z,101932.59
2023-05-19T07:56:09.977Z,101931.72
2023-05-19T07:58:11.571Z,101929.91
2023-05-19T08:00:13.754Z,101921.84
2023-05-19T08:02:15.449Z,101927.09
2023-05-19T08:04:17.427Z,101927.00
2023-05-19T08:06:19.258Z,101927.72
2023-05-19T08:08:22.017Z,101920.63
2023-05-19T08:10:23.801Z,101914.28
2023-05-19T08:12:25.498Z,101918.78
2023-05-19T08:14:27.451Z,101920.50
2023-05-19T08:16:29.324Z,101914.28
2023-05-19T08:18:31.089Z,101909.75
2023-05-19T08:20:34.090Z,101913.28
2023-05-19T08:22:36.631Z,101919.53
2023-05-19T08:24:39.191Z,101912.34
2023-05-19T08:26:40.999Z,101918.56
2023-05-19T08:28:44.193Z,101914.88
2023-05-19T08:30:46.251Z,101917.56
2023-05-19T08:32:48.755Z,101922.00
2023-05-19T08:34:50.816Z,101910.28
2023-05-19T08:36:53.527Z,101912.94
2023-05-19T08:38:55.090Z,101905.75
2023-05-19T08:40:58.088Z,101903.06
2023-05-19T08:42:59.888Z,101903.06
2023-05-19T08:45:02.288Z,101900.38
2023-05-19T08:47:05.478Z,101890.47
2023-05-19T08:49:12.244Z,101893.16
2023-05-19T08:51:28.873Z,101894.75
2023-05-19T08:53:38.158Z,101884.88
2023-05-19T08:55:47.133Z,101884.75
2023-05-19T08:57:49.841Z,101885.59
2023-05-19T08:59:52.503Z,101877.56
2023-05-19T09:01:54.861Z,101888.16
2023-05-19T09:03:57.418Z,101875.56
2023-05-19T09:05:59.217Z,101880.94
2023-05-19T09:08:03.250Z,101879.16
2023-05-19T09:10:06.367Z,101874.63
2023-05-19T09:12:08.060Z,101875.56
2023-05-19T09:14:09.696Z,101872.88
2023-05-19T09:16:11.774Z,101867.53
2023-05-19T09:18:14.419Z,101870.09
2023-05-19T09:20:17.100Z,101865.56
2023-05-19T09:22:19.439Z,101864.59
2023-05-19T09:24:25.775Z,101869.84
2023-05-19T09:26:37.347Z,101864.47
2023-05-19T09:28:40.197Z,101854.59
2023-05-19T09:30:41.836Z,101857.28
2023-05-19T09:32:44.547Z,101850.19
2023-05-19T09:34:47.710Z,101849.22
2023-05-19T09:36:49.718Z,101851.91
2023-05-19T09:38:51.817Z,101846.66
2023-05-19T09:40:57.250Z,101849.22
2023-05-19T09:42:59.024Z,101851.06
2023-05-19T09:45:02.162Z,101850.91
2023-05-19T09:47:03.821Z,101850.91
2023-05-19T09:49:09.865Z,101850.66
2023-05-19T09:51:12.267Z,101849.81
2023-05-19T09:53:15.098Z,101848.84
2023-05-19T09:55:16.733Z,101834.53
2023-05-19T09:57:18.482Z,101844.34
2023-05-19T09:59:20.302Z,101836.38
2023-05-19T10:01:23.129Z,101847.97
2023-05-19T10:03:25.426Z,101848.84
2023-05-19T10:05:27.533Z,101855.09
2023-05-19T10:07:29.708Z,101849.81
2023-05-19T10:09:32.004Z,101840.78
2023-05-19T10:11:33.719Z,101837.97
2023-05-19T10:13:38.583Z,101841.50
2023-05-19T10:15:57.183Z,101837.00
2023-05-19T10:18:00.885Z,101836.88
2023-05-19T10:20:02.686Z,101830.91
2023-05-19T10:22:04.472Z,101836.88
2023-05-19T10:24:06.468Z,101834.06
2023-05-19T10:26:08.447Z,101833.22
2023-05-19T10:28:15.279Z,101829.69
2023-05-19T10:30:29.673Z,101832.38
2023-05-19T10:32:32.254Z,101832.47
2023-05-19T10:34:50.145Z,101831.50
2023-05-19T10:37:03.589Z,101830.53
2023-05-19T10:39:08.281Z,101827.72
2023-05-19T10:41:09.926Z,101828.59
2023-05-19T10:43:35.814Z,101821.38
2023-05-19T10:45:49.228Z,101822.34
2023-05-19T10:47:51.788Z,101827.72
2023-05-19T10:49:54.216Z,101828.59
2023-05-19T10:51:59.180Z,101825.91
2023-05-19T10:54:10.443Z,101825.91
2023-05-19T10:56:34.775Z,101821.38
2023-05-19T10:58:45.133Z,101816.00
2023-05-19T11:00:46.790Z,101825.75
2023-05-19T11:02:56.054Z,101825.66
2023-05-19T11:05:08.394Z,101821.13
2023-05-19T11:07:10.570Z,101820.13
2023-05-19T11:09:20.882Z,101814.75
2023-05-19T11:11:26.978Z,101818.19
2023-05-19T11:13:28.638Z,101817.34
2023-05-19T11:15:35.036Z,101806.59
2023-05-19T11:17:36.879Z,101808.41
2023-05-19T11:19:38.535Z,101803.03
2023-05-19T11:21:52.269Z,101814.75
2023-05-19T11:23:54.003Z,101807.69
2023-05-19T11:25:55.931Z,101796.78
2023-05-19T11:28:00.982Z,101787.78
2023-05-19T11:30:14.367Z,101790.31
2023-05-19T11:32:16.458Z,101798.28
2023-05-19T11:34:18.459Z,101792.91
2023-05-19T11:36:21.666Z,101790.91
2023-05-19T11:38:23.737Z,101781.91
2023-05-19T11:40:25.724Z,101777.28
2023-05-19T11:42:27.362Z,101780.81
2023-05-19T11:44:29.025Z,101779.09
2023-05-19T11:46:32.163Z,101785.22
2023-05-19T11:48:33.969Z,101776.28
2023-05-19T11:50:38.277Z,101770.91
2023-05-19T11:52:44.695Z,101775.19
2023-05-19T11:54:48.644Z,101768.34
2023-05-19T11:56:50.238Z,101777.97
2023-05-19T11:58:53.325Z,101767.88
2023-05-19T12:00:55.159Z,101761.03
2023-05-19T12:02:57.526Z,101757.00
2023-05-19T12:04:59.181Z,101753.72
2023-05-19T12:07:00.824Z,101745.91
2023-05-19T12:09:02.867Z,101747.50
2023-05-19T12:11:04.975Z,101755.78
2023-05-19T12:13:09.118Z,101749.56
2023-05-19T12:15:11.601Z,101748.81
2023-05-19T12:17:14.251Z,101739.81
2023-05-19T12:19:15.986Z,101737.75
2023-05-19T12:21:17.729Z,101731.47
2023-05-19T12:23:19.739Z,101743.06
2023-05-19T12:25:21.835Z,101738.91
2023-05-19T12:27:26.174Z,101739.16
2023-05-19T12:29:31.698Z,101729.13
2023-05-19T12:31:35.156Z,101738.88
2023-05-19T12:33:36.990Z,101737.16
2023-05-19T12:35:38.654Z,101732.16
2023-05-19T12:37:43.454Z,101740.56
2023-05-19T12:39:45.449Z,101724.47
2023-05-19T12:41:47.256Z,101732.06
2023-05-19T12:43:49.207Z,101729.47
2023-05-19T12:45:50.972Z,101716.81
2023-05-19T12:47:52.857Z,101725.84
2023-05-19T12:50:13.503Z,101716.81
2023-05-19T12:52:15.284Z,101717.19
2023-05-19T12:54:22.183Z,101711.53
2023-05-19T12:56:26.931Z,101711.75
2023-05-19T12:58:28.596Z,101717.13
2023-05-19T13:00:32.600Z,101717.13
2023-05-19T13:02:36.391Z,101706.63
2023-05-19T13:04:38.208Z,101712.97
2023-05-19T13:06:41.731Z,101702.34
2023-05-19T13:08:43.537Z,101705.53
2023-05-19T13:10:46.222Z,101711.84
2023-05-19T13:12:47.802Z,101700.25
2023-05-19T13:14:49.423Z,101705.00
2023-05-19T13:16:51.272Z,101707.16
2023-05-19T13:18:53.448Z,101708.38
2023-05-19T13:20:55.286Z,101702.22
2023-05-19T13:22:57.457Z,101696.63
2023-05-19T13:24:59.773Z,101699.09
2023-05-19T13:27:03.152Z,101698.06
2023-05-19T13:29:05.518Z,101696.31
2023-05-19T13:31:07.209Z,101690.03
2023-05-19T13:33:08.921Z,101689.72
2023-05-19T13:35:11.854Z,101689.63
2023-05-19T13:37:13.723Z,101692.41
2023-05-19T13:39:15.647Z,101696.13
2023-05-19T13:41:18.282Z,101689.41
2023-05-19T13:43:19.981Z,101683.34
2023-05-19T13:45:21.584Z,101687.94
2023-05-19T13:47:24.124Z,101684.31
2023-05-19T13:49:25.827Z,101680.97
2023-05-19T13:51:27.577Z,101681.47
2023-05-19T13:53:31.106Z,101675.78
2023-05-19T13:55:33.182Z,101672.00
2023-05-19T13:57:35.482Z,101674.28
2023-05-19T13:59:40.869Z,101682.38
2023-05-19T14:01:50.973Z,101678.84
2023-05-19T14:03:53.069Z,101669.97
2023-05-19T14:05:54.760Z,101672.41
2023-05-19T14:07:56.947Z,101669.88
2023-05-19T14:09:58.585Z,101666.25
2023-05-19T14:12:00.700Z,101674.06
2023-05-19T14:14:05.069Z,101680.63
2023-05-19T14:16:06.829Z,101658.97
2023-05-19T14:18:08.506Z,101668.28
2023-05-19T14:20:11.791Z,101659.81
2023-05-19T14:22:13.447Z,101663.66
2023-05-19T14:24:15.290Z,101655.00
2023-05-19T14:26:17.064Z,101663.78
2023-05-19T14:28:18.670Z,101671.69
2023-05-19T14:30:20.985Z,101664.88
2023-05-19T14:32:22.634Z,101660.13
2023-05-19T14:34:24.324Z,101669.16
2023-05-19T14:36:26.120Z,101661.13
2023-05-19T14:38:29.353Z,101652.69
2023-05-19T14:40:31.551Z,101662.63
2023-05-19T14:42:33.555Z,101658.81
2023-05-19T14:44:35.250Z,101645.53
2023-05-19T14:46:36.984Z,101650.19
2023-05-19T14:48:38.708Z,101642.16
2023-05-19T14:50:40.391Z,101651.97
2023-05-19T14:52:42.036Z,101645.09
2023-05-19T14:54:43.663Z,101637.88
2023-05-19T14:56:45.612Z,101637.53
2023-05-19T14:58:47.310Z,101632.31
2023-05-19T15:00:49.046Z,101636.13
2023-05-19T15:02:50.809Z,101631.72
2023-05-19T15:04:52.493Z,101635.56
2023-05-19T15:07:05.817Z,101635.97
2023-05-19T15:09:14.508Z,101633.22
2023-05-19T15:11:16.071Z,101626.94
2023-05-19T15:13:18.979Z,101629.63
2023-05-19T15:15:20.784Z,101630.13
2023-05-19T15:17:22.469Z,101634.34
2023-05-19T15:19:24.153Z,101627.59
2023-05-19T15:21:25.960Z,101629.84
2023-05-19T15:23:27.647Z,101628.38
2023-05-19T15:25:29.290Z,101625.53
2023-05-19T15:27:30.968Z,101618.69
2023-05-19T15:29:32.571Z,101629.63
2023-05-19T15:31:35.759Z,101618.56
2023-05-19T15:33:39.022Z,101622.44
2023-05-19T15:35:40.830Z,101623.53
2023-05-19T15:37:42.416Z,101620.63
2023-05-19T15:39:44.058Z,101620.34
2023-05-19T15:41:45.873Z,101624.16
2023-05-19T15:43:47.515Z,101620.44
2023-05-19T15:45:52.072Z,101617.31
2023-05-19T15:47:54.293Z,101616.34
2023-05-19T15:49:55.981Z,101619.59
2023-05-19T15:51:57.623Z,101617.75
2023-05-19T15:53:59.225Z,101612.84
2023-05-19T15:56:02.152Z,101616.69
2023-05-19T15:58:04.957Z,101614.22
2023-05-19T16:00:07.473Z,101612.34
2023-05-19T16:02:09.262Z,101608.09
2023-05-19T16:04:11.103Z,101600.28
2023-05-19T16:06:13.052Z,101596.88
2023-05-19T16:08:14.711Z,101612.63
2023-05-19T16:10:16.505Z,101607.19
2023-05-19T16:12:18.200Z,101603.28
2023-05-19T16:14:19.846Z,101603.19
2023-05-19T16:16:21.811Z,101599.53
2023-05-19T16:18:23.712Z,101606.91
2023-05-19T16:20:28.004Z,101604.50
2023-05-19T16:22:30.567Z,101598.28
2023-05-19T16:24:32.228Z,101601.75
2023-05-19T16:26:34.536Z,101600.38
2023-05-19T16:28:36.220Z,101588.19
2023-05-19T16:30:38.005Z,101594.41
2023-05-19T16:32:39.802Z,101592.06
2023-05-19T16:34:41.435Z,101591.72
2023-05-19T16:36:43.168Z,101579.97
2023-05-19T16:38:44.823Z,101590.25
2023-05-19T16:40:46.385Z,101583.38
2023-05-19T16:42:48.029Z,101585.97
2023-05-19T16:44:49.724Z,101581.25
2023-05-19T16:46:51.379Z,101578.47
2023-05-19T16:48:53.065Z,101575.31
2023-05-19T16:50:54.775Z,101572.69
2023-05-19T16:52:56.391Z,101568.31
2023-05-19T16:54:58.133Z,101566.72
2023-05-19T16:56:59.952Z,101567.94
2023-05-19T16:59:01.668Z,101578.03
2023-05-19T17:01:04.077Z,101578.25
2023-05-19T17:03:06.135Z,101580.16
2023-05-19T17:05:08.317Z,101596.84
2023-05-19T17:07:15.731Z,101584.88
2023-05-19T17:09:17.539Z,101588.31
2023-05-19T17:11:19.164Z,101581.31
2023-05-19T17:13:20.988Z,101580.66
2023-05-19T17:15:22.581Z,101577.56
2023-05-19T17:17:24.240Z,101578.94
2023-05-19T17:19:26.114Z,101585.88
2023-05-19T17:21:27.854Z,101580.03
2023-05-19T17:23:29.667Z,101588.69
2023-05-19T17:25:32.933Z,101582.16
2023-05-19T17:27:34.545Z,101589.81
2023-05-19T17:29:36.859Z,101587.81
2023-05-19T17:31:38.777Z,101587.69
2023-05-19T17:33:40.835Z,101578.59
2023-05-19T17:35:42.462Z,101593.69
2023-05-19T17:37:44.073Z,101586.63
2023-05-19T17:39:45.778Z,101591.22
2023-05-19T17:41:47.360Z,101594.13
2023-05-19T17:43:48.969Z,101591.34
2023-05-19T17:45:50.772Z,101591.22
2023-05-19T17:47:52.392Z,101588.97
2023-05-19T17:49:54.091Z,101583.97
2023-05-19T17:51:56.069Z,101584.59
2023-05-19T17:53:58.388Z,101576.03
2023-05-19T17:56:01.613Z,101589.81
2023-05-19T17:58:03.434Z,101583.31
2023-05-19T18:00:07.575Z,101584.16
2023-05-19T18:02:10.002Z,101579.75
2023-05-19T18:04:13.808Z,101587.78
2023-05-19T18:06:17.801Z,101592.63
2023-05-19T18:08:19.878Z,101589.75
2023-05-19T18:10:22.280Z,101585.38
2023-05-19T18:12:23.992Z,101589.75
2023-05-19T18:14:25.587Z,101585.25
2023-05-19T18:16:27.497Z,101586.00
2023-05-19T18:18:29.131Z,101589.19
2023-05-19T18:20:34.057Z,101583.75
2023-05-19T18:22:35.942Z,101592.41
2023-05-19T18:24:37.609Z,101593.13
2023-05-19T18:26:41.857Z,101591.31
2023-05-19T18:28:44.028Z,101596.03
2023-05-19T18:30:45.805Z,101592.28
2023-05-19T18:32:47.434Z,101598.47
2023-05-19T18:34:49.154Z,101598.38
2023-05-19T18:36:50.864Z,101599.13
2023-05-19T18:38:53.210Z,101590.44
2023-05-19T18:40:56.636Z,101599.13
2023-05-19T18:42:58.281Z,101597.53
2023-05-19T18:44:59.931Z,101599.56
2023-05-19T18:47:01.832Z,101597.53
2023-05-19T18:49:03.965Z,101601.91
2023-05-19T18:51:07.254Z,101600.00
2023-05-19T18:53:08.870Z,101600.09
2023-05-19T18:55:10.693Z,101608.00
2023-05-19T18:57:12.733Z,101605.34
2023-05-19T18:59:14.495Z,101605.78
2023-05-19T19:01:16.515Z,101605.34
2023-05-19T19:03:18.202Z,101603.31
2023-05-19T19:05:20.839Z,101603.59
2023-05-19T19:07:24.384Z,101608.31
2023-05-19T19:09:25.952Z,101606.16
2023-05-19T19:11:27.612Z,101608.50
2023-05-19T19:13:29.278Z,101609.06
2023-05-19T19:15:31.629Z,101609.91
2023-05-19T19:17:34.102Z,101615.81
2023-05-19T19:19:35.912Z,101616.44
2023-05-19T19:21:37.689Z,101618.88
2023-05-19T19:23:39.476Z,101617.69
2023-05-19T19:25:41.104Z,101616.63
2023-05-19T19:27:42.780Z,101622.69
2023-05-19T19:29:44.431Z,101621.84
2023-05-19T19:31:46.262Z,101619.91
2023-05-19T19:33:47.946Z,101618.94
2023-05-19T19:35:49.691Z,101624.06
2023-05-19T19:37:51.819Z,101631.13
2023-05-19T19:39:53.487Z,101632.97
2023-05-19T19:41:55.139Z,101634.56
2023-05-19T19:43:56.794Z,101630.91
2023-05-19T19:46:02.478Z,101637.88
2023-05-19T19:48:04.454Z,101635.09
2023-05-19T19:50:07.429Z,101637.63
2023-05-19T19:52:09.151Z,101646.53
2023-05-19T19:54:10.877Z,101637.56
2023-05-19T19:56:12.489Z,101645.44
2023-05-19T19:58:14.547Z,101640.00
2023-05-19T20:00:16.692Z,101647.16
2023-05-19T20:02:18.419Z,101645.22
2023-05-19T20:04:20.169Z,101655.94
2023-05-19T20:06:22.181Z,101648.03
2023-05-19T20:08:24.942Z,101658.41
2023-05-19T20:10:26.745Z,101662.69
2023-05-19T20:12:30.048Z,101658.03
2023-05-19T20:14:31.898Z,101663.41
2023-05-19T20:16:33.638Z,101657.94
2023-05-19T20:18:35.801Z,101661.47
2023-05-19T20:20:38.426Z,101667.59
2023-05-19T20:22:40.189Z,101665.84
2023-05-19T20:24:41.838Z,101668.53
2023-05-19T20:26:43.437Z,101667.59
2023-05-19T20:28:45.179Z,101667.59
2023-05-19T20:30:47.057Z,101672.72
2023-05-19T20:32:48.832Z,101672.59
2023-05-19T20:34:50.746Z,101678.78
2023-05-19T20:36:52.456Z,101673.34
2023-05-19T20:38:54.076Z,101676.88
2023-05-19T20:40:55.839Z,101671.38
2023-05-19T20:42:57.488Z,101676.66
2023-05-19T20:44:59.705Z,101673.84
2023-05-19T20:47:01.349Z,101675.66
2023-05-19T20:49:03.236Z,101677.50
2023-05-19T20:51:05.125Z,101677.38
2023-05-19T20:53:07.414Z,101671.16
2023-05-19T20:55:09.578Z,101679.94
2023-05-19T20:57:12.493Z,101669.34
2023-05-19T20:59:14.127Z,101673.75
2023-05-19T21:01:15.839Z,101671.91
2023-05-19T21:03:17.536Z,101674.50
2023-05-19T21:05:19.433Z,101667.34
2023-05-19T21:07:21.541Z,101675.25
2023-05-19T21:09:23.194Z,101669.78
2023-05-19T21:11:25.217Z,101673.41
2023-05-19T21:13:26.912Z,101675.16
2023-05-19T21:15:28.524Z,101678.78
2023-05-19T21:17:30.349Z,101674.59
2023-05-19T21:19:32.065Z,101679.84
2023-05-19T21:21:33.978Z,101674.50
2023-05-19T21:23:35.832Z,101674.50
2023-05-19T21:25:39.555Z,101682.53
2023-05-19T21:27:41.284Z,101680.81
2023-05-19T21:29:42.880Z,101681.78
2023-05-19T21:31:44.473Z,101682.84
2023-05-19T21:33:46.223Z,101682.31
2023-05-19T21:35:47.806Z,101680.53
2023-05-19T21:37:49.637Z,101684.91
2023-05-19T21:39:51.562Z,101682.47
2023-05-19T21:41:53.168Z,101677.94
2023-05-19T21:43:54.894Z,101678.16
2023-05-19T21:45:56.461Z,101677.31
2023-05-19T21:47:58.061Z,101685.44
2023-05-19T21:49:59.762Z,101674.75
2023-05-19T21:52:01.382Z,101684.50
2023-05-19T21:54:03.040Z,101678.31
2023-05-19T21:56:04.967Z,101689.09
2023-05-19T21:58:06.616Z,101687.28
2023-05-19T22:00:12.781Z,101678.41
2023-05-19T22:02:14.505Z,101680.97
2023-05-19T22:04:18.519Z,101673.03
2023-05-19T22:06:20.430Z,101678.53
2023-05-19T22:08:22.559Z,101675.44
2023-05-19T22:10:24.320Z,101675.53
2023-05-19T22:12:25.949Z,101678.13
2023-05-19T22:14:27.727Z,101673.47
2023-05-19T22:16:30.778Z,101675.09
2023-05-19T22:18:32.385Z,101676.06
2023-05-19T22:20:34.606Z,101677.78
2023-05-19T22:22:36.614Z,101665.34
2023-05-19T22:24:38.537Z,101671.78
2023-05-19T22:26:42.685Z,101673.47
2023-05-19T22:28:44.284Z,101669.97
2023-05-19T22:30:45.922Z,101666.53
2023-05-19T22:32:47.522Z,101667.84
2023-05-19T22:34:49.351Z,101666.25
2023-05-19T22:36:51.072Z,101669.91
2023-05-19T22:38:52.754Z,101666.03
2023-05-19T22:40:54.397Z,101667.94
2023-05-19T22:42:56.100Z,101667.00
2023-05-19T22:44:58.097Z,101665.03
2023-05-19T22:46:59.909Z,101669.56
2023-05-19T22:49:01.490Z,101656.91
2023-05-19T22:51:03.221Z,101661.16
2023-05-19T22:53:04.806Z,101659.38
2023-05-19T22:55:07.030Z,101656.78
2023-05-19T22:57:08.845Z,101663.00
2023-05-19T22:59:11.462Z,101664.81
2023-05-19T23:01:13.202Z,101659.69
2023-05-19T23:03:15.045Z,101656.16
2023-05-19T23:05:16.760Z,101653.47
2023-05-19T23:07:18.378Z,101662.28
2023-05-19T23:09:20.075Z,101655.09
2023-05-19T23:11:21.948Z,101652.41
2023-05-19T23:13:23.583Z,101650.81
2023-05-19T23:15:25.327Z,101652.63
2023-05-19T23:17:27.110Z,101652.84
2023-05-19T23:19:31.758Z,101652.84
2023-05-19T23:21:33.460Z,101649.34
2023-05-19T23:23:36.725Z,101648.56